createdAt,value
2023-04-10T00:01:18.476Z,102010.47
2023-04-10T00:03:46.533Z,102007.25
2023-04-10T00:06:13.147Z,102004.94
2023-04-10T00:08:40.497Z,101998.06
2023-04-10T00:11:07.305Z,101994.41
2023-04-10T00:13:33.748Z,101994.41
2023-04-10T00:16:00.146Z,101988.69
2023-04-10T00:18:26.610Z,101987.03
2023-04-10T00:20:53.131Z,101984.19
2023-04-10T00:23:19.778Z,101984.53
2023-04-10T00:25:46.445Z,101986.56
2023-04-10T00:28:12.775Z,101974.69
2023-04-10T00:30:39.427Z,101973.84
2023-04-10T00:33:05.783Z,101977.38
2023-04-10T00:35:32.259Z,101975.72
2023-04-10T00:37:58.830Z,101982.03
2023-04-10T00:40:25.184Z,101974.03
2023-04-10T00:42:51.557Z,101965.66
2023-04-10T00:45:18.046Z,101973.69
2023-04-10T00:47:44.495Z,101978.38
2023-04-10T00:50:10.892Z,101970.69
2023-04-10T00:52:37.847Z,101970.19
2023-04-10T00:55:04.243Z,101966.84
2023-04-10T00:57:30.807Z,101967.69
2023-04-10T00:59:57.363Z,101969.50
2023-04-10T01:02:24.511Z,101968.03
2023-04-10T01:04:51.740Z,101968.88
2023-04-10T01:07:18.496Z,101957.34
2023-04-10T01:09:45.058Z,101968.19
2023-04-10T01:12:11.450Z,101964.84
2023-04-10T01:14:37.987Z,101972.53
2023-04-10T01:17:04.504Z,101968.88
2023-04-10T01:19:31.620Z,101963.53
2023-04-10T01:21:58.017Z,101968.50
2023-04-10T01:24:24.618Z,101966.53
2023-04-10T01:26:51.006Z,101968.88
2023-04-10T01:29:17.318Z,101976.69
2023-04-10T01:31:43.673Z,101966.19
2023-04-10T01:34:10.081Z,101971.34
2023-04-10T01:36:36.641Z,101976.03
2023-04-10T01:39:03.073Z,101973.38
2023-04-10T01:41:29.749Z,101975.88
2023-04-10T01:43:56.202Z,101974.22
2023-04-10T01:46:22.605Z,101969.50
2023-04-10T01:48:49.034Z,101968.38
2023-04-10T01:51:15.377Z,101965.53
2023-04-10T01:53:41.702Z,101968.38
2023-04-10T01:56:08.045Z,101959.00
2023-04-10T01:58:34.381Z,101967.00
2023-04-10T02:01:00.741Z,101975.38
2023-04-10T02:03:27.786Z,101969.69
2023-04-10T02:05:54.235Z,101968.03
2023-04-10T02:08:20.559Z,101968.50
2023-04-10T02:10:46.884Z,101959.34
2023-04-10T02:13:13.226Z,101968.88
2023-04-10T02:15:40.135Z,101964.00
2023-04-10T02:18:06.530Z,101957.34
2023-04-10T02:20:32.916Z,101949.50
2023-04-10T02:22:59.409Z,101953.81
2023-04-10T02:25:25.806Z,101953.66
2023-04-10T02:27:52.266Z,101948.47
2023-04-10T02:30:18.646Z,101953.66
2023-04-10T02:32:45.090Z,101959.00
2023-04-10T02:35:11.641Z,101954.00
2023-04-10T02:37:38.370Z,101951.16
2023-04-10T02:40:05.067Z,101952.63
2023-04-10T02:42:31.443Z,101958.19
2023-04-10T02:44:58.146Z,101952.16
2023-04-10T02:47:24.536Z,101943.28
2023-04-10T02:49:51.522Z,101940.13
2023-04-10T02:52:17.926Z,101945.00
2023-04-10T02:54:44.386Z,101943.28
2023-04-10T02:57:11.377Z,101942.66
2023-04-10T02:59:37.748Z,101935.66
2023-04-10T03:02:04.511Z,101932.59
2023-04-10T03:04:31.078Z,101936.47
2023-04-10T03:06:57.497Z,101945.16
2023-04-10T03:09:23.979Z,101943.28
2023-04-10T03:11:50.858Z,101945.81
2023-04-10T03:14:17.147Z,101939.47
2023-04-10T03:16:43.433Z,101935.78
2023-04-10T03:19:09.783Z,101942.16
2023-04-10T03:21:36.795Z,101932.25
2023-04-10T03:24:03.319Z,101935.28
2023-04-10T03:26:29.733Z,101932.44
2023-04-10T03:28:56.321Z,101935.94
2023-04-10T03:31:23.309Z,101924.59
2023-04-10T03:33:49.764Z,101926.41
2023-04-10T03:36:16.650Z,101927.41
2023-04-10T03:38:43.105Z,101929.59
2023-04-10T03:41:09.682Z,101932.25
2023-04-10T03:43:36.145Z,101931.44
2023-04-10T03:46:02.600Z,101928.44
2023-04-10T03:48:29.142Z,101943.50
2023-04-10T03:50:55.608Z,101948.84
2023-04-10T03:53:22.460Z,101951.66
2023-04-10T03:55:48.960Z,101951.53
2023-04-10T03:58:15.911Z,101957.50
2023-04-10T04:00:42.236Z,101963.31
2023-04-10T04:03:08.885Z,101963.53
2023-04-10T04:05:35.442Z,101963.31
2023-04-10T04:08:02.431Z,101963.16
2023-04-10T04:10:28.808Z,101960.19
2023-04-10T04:12:55.266Z,101960.19
2023-04-10T04:15:21.631Z,101964.34
2023-04-10T04:17:48.489Z,101971.00
2023-04-10T04:20:14.886Z,101973.69
2023-04-10T04:22:41.262Z,101974.03
2023-04-10T04:25:07.855Z,101982.88
2023-04-10T04:27:34.211Z,101988.22
2023-04-10T04:30:00.564Z,101986.06
2023-04-10T04:32:28.118Z,101982.88
2023-04-10T04:34:54.548Z,101990.06
2023-04-10T04:37:20.982Z,101987.59
2023-04-10T04:39:47.502Z,101990.72
2023-04-10T04:42:14.494Z,101986.41
2023-04-10T04:44:41.237Z,101983.00
2023-04-10T04:47:07.759Z,101990.25
2023-04-10T04:49:34.298Z,101986.56
2023-04-10T04:52:00.628Z,102000.41
2023-04-10T04:54:27.405Z,101997.91
2023-04-10T04:56:53.805Z,101997.72
2023-04-10T04:59:20.230Z,101998.59
2023-04-10T05:01:46.726Z,101999.41
2023-04-10T05:04:13.304Z,101992.06
2023-04-10T05:06:40.148Z,101993.72
2023-04-10T05:09:06.512Z,101991.19
2023-04-10T05:11:32.916Z,101996.22
2023-04-10T05:13:59.249Z,101997.88
2023-04-10T05:16:25.822Z,101992.53
2023-04-10T05:18:53.093Z,102002.56
2023-04-10T05:21:19.778Z,102005.13
2023-04-10T05:23:46.417Z,102011.78
2023-04-10T05:26:13.097Z,102011.41
2023-04-10T05:28:39.785Z,102014.09
2023-04-10T05:31:06.244Z,102010.91
2023-04-10T05:33:32.625Z,102005.41
2023-04-10T05:35:58.994Z,102004.75
2023-04-10T05:38:25.619Z,102005.44
2023-04-10T05:40:52.025Z,102002.91
2023-04-10T05:43:18.378Z,102013.75
2023-04-10T05:45:45.371Z,102004.94
2023-04-10T05:48:11.801Z,102008.44
2023-04-10T05:50:38.414Z,102014.25
2023-04-10T05:53:05.554Z,102016.28
2023-04-10T05:55:32.350Z,102003.69
2023-04-10T05:57:59.156Z,102015.47
2023-04-10T06:00:25.503Z,102018.09
2023-04-10T06:02:52.068Z,102003.41
2023-04-10T06:05:19.156Z,102017.81
2023-04-10T06:07:45.614Z,102015.97
2023-04-10T06:10:11.969Z,102013.81
2023-04-10T06:12:38.464Z,102012.19
2023-04-10T06:15:04.874Z,102016.34
2023-04-10T06:17:31.638Z,102019.19
2023-04-10T06:19:58.175Z,102011.66
2023-04-10T06:22:24.473Z,102005.47
2023-04-10T06:24:50.941Z,102003.69
2023-04-10T06:27:17.471Z,102001.34
2023-04-10T06:29:43.878Z,102014.84
2023-04-10T06:32:10.319Z,102009.03
2023-04-10T06:34:36.820Z,102000.84
2023-04-10T06:37:03.352Z,102004.88
2023-04-10T06:39:29.758Z,101999.53
2023-04-10T06:41:56.170Z,101997.50
2023-04-10T06:44:22.605Z,101999.22
2023-04-10T06:46:49.283Z,102000.50
2023-04-10T06:49:15.612Z,101999.84
2023-04-10T06:51:42.008Z,102000.22
2023-04-10T06:54:08.388Z,101990.69
2023-04-10T06:56:34.930Z,101997.19
2023-04-10T06:59:01.413Z,101996.03
2023-04-10T07:01:27.955Z,101992.56
2023-04-10T07:03:54.615Z,101991.56
2023-04-10T07:06:20.960Z,101990.56
2023-04-10T07:08:47.465Z,101991.72
2023-04-10T07:11:13.789Z,101992.72
2023-04-10T07:13:40.852Z,101992.59
2023-04-10T07:16:07.481Z,101987.72
2023-04-10T07:18:34.388Z,101989.38
2023-04-10T07:21:00.927Z,101986.53
2023-04-10T07:23:27.743Z,101993.22
2023-04-10T07:25:54.097Z,101985.56
2023-04-10T07:28:20.500Z,101997.03
2023-04-10T07:30:46.783Z,101992.22
2023-04-10T07:33:14.244Z,101986.69
2023-04-10T07:35:40.975Z,101993.56
2023-04-10T07:38:07.431Z,101988.25
2023-04-10T07:40:34.271Z,101991.56
2023-04-10T07:43:00.595Z,101988.56
2023-04-10T07:45:27.185Z,101985.19
2023-04-10T07:47:53.635Z,101983.88
2023-04-10T07:50:20.414Z,101974.03
2023-04-10T07:52:46.894Z,101976.88
2023-04-10T07:55:13.583Z,101974.38
2023-04-10T07:57:41.710Z,101982.22
2023-04-10T08:00:08.947Z,101970.34
2023-04-10T08:02:35.393Z,101964.84
2023-04-10T08:05:01.929Z,101969.19
2023-04-10T08:07:28.991Z,101968.84
2023-04-10T08:09:55.297Z,101963.84
2023-04-10T08:12:21.660Z,101964.19
2023-04-10T08:14:48.476Z,101960.69
2023-04-10T08:17:14.997Z,101958.31
2023-04-10T08:19:41.587Z,101962.19
2023-04-10T08:22:07.888Z,101962.84
2023-04-10T08:24:34.243Z,101960.84
2023-04-10T08:27:00.588Z,101954.63
2023-04-10T08:29:27.195Z,101957.84
2023-04-10T08:31:54.018Z,101959.97
2023-04-10T08:34:20.463Z,101958.16
2023-04-10T08:36:46.841Z,101962.50
2023-04-10T08:39:13.633Z,101952.16
2023-04-10T08:41:40.008Z,101954.81
2023-04-10T08:44:06.388Z,101956.50
2023-04-10T08:46:32.841Z,101957.31
2023-04-10T08:48:59.317Z,101957.50
2023-04-10T08:51:26.035Z,101965.16
2023-04-10T08:53:53.782Z,101955.19
2023-04-10T08:56:20.892Z,101955.50
2023-04-10T08:58:47.272Z,101950.50
2023-04-10T09:01:13.711Z,101948.97
2023-04-10T09:03:40.898Z,101951.97
2023-04-10T09:06:07.458Z,101942.13
2023-04-10T09:08:33.806Z,101945.81
2023-04-10T09:11:00.581Z,101943.78
2023-04-10T09:13:26.935Z,101939.47
2023-04-10T09:15:53.512Z,101928.63
2023-04-10T09:18:19.922Z,101934.59
2023-04-10T09:20:46.506Z,101930.44
2023-04-10T09:23:13.050Z,101933.09
2023-04-10T09:25:39.651Z,101928.78
2023-04-10T09:28:06.176Z,101933.09
2023-04-10T09:30:32.703Z,101924.94
2023-04-10T09:33:01.320Z,101920.94
2023-04-10T09:35:28.549Z,101915.25
2023-04-10T09:37:54.924Z,101920.41
2023-04-10T09:40:21.340Z,101914.91
2023-04-10T09:42:47.686Z,101920.09
2023-04-10T09:45:14.138Z,101907.59
2023-04-10T09:47:40.794Z,101908.56
2023-04-10T09:50:07.165Z,101910.41
2023-04-10T09:52:33.653Z,101910.94
2023-04-10T09:54:59.971Z,101905.22
2023-04-10T09:57:26.273Z,101901.16
2023-04-10T09:59:52.598Z,101889.47
2023-04-10T10:02:19.410Z,101890.81
2023-04-10T10:04:46.076Z,101880.47
2023-04-10T10:07:12.691Z,101876.59
2023-04-10T10:09:39.572Z,101881.56
2023-04-10T10:12:05.989Z,101873.69
2023-04-10T10:14:32.372Z,101865.19
2023-04-10T10:16:58.715Z,101862.22
2023-04-10T10:19:25.386Z,101866.50
2023-04-10T10:21:51.881Z,101865.88
2023-04-10T10:24:18.282Z,101860.88
2023-04-10T10:26:44.637Z,101865.03
2023-04-10T10:29:11.104Z,101859.16
2023-04-10T10:31:37.629Z,101865.16
2023-04-10T10:34:04.231Z,101855.53
2023-04-10T10:36:30.578Z,101852.31
2023-04-10T10:38:56.981Z,101855.53
2023-04-10T10:41:23.662Z,101846.84
2023-04-10T10:43:50.032Z,101844.34
2023-04-10T10:46:16.701Z,101842.03
2023-04-10T10:48:43.138Z,101826.34
2023-04-10T10:51:09.656Z,101832.72
2023-04-10T10:53:36.169Z,101824.84
2023-04-10T10:56:02.552Z,101829.34
2023-04-10T10:58:28.891Z,101818.66
2023-04-10T11:00:55.284Z,101810.88
2023-04-10T11:03:22.010Z,101807.19
2023-04-10T11:05:48.589Z,101801.00
2023-04-10T11:08:14.966Z,101802.84
2023-04-10T11:10:41.311Z,101801.00
2023-04-10T11:13:07.761Z,101795.66
2023-04-10T11:15:34.143Z,101797.50
2023-04-10T11:18:00.553Z,101791.16
2023-04-10T11:20:27.563Z,101786.63
2023-04-10T11:22:54.163Z,101776.78
2023-04-10T11:25:20.490Z,101779.28
2023-04-10T11:27:46.820Z,101765.06
2023-04-10T11:30:13.191Z,101760.56
2023-04-10T11:32:39.565Z,101749.03
2023-04-10T11:35:05.948Z,101745.56
2023-04-10T11:37:32.304Z,101742.03
2023-04-10T11:39:58.729Z,101730.50
2023-04-10T11:42:25.302Z,101728.69
2023-04-10T11:44:51.782Z,101727.84
2023-04-10T11:47:18.286Z,101727.84
2023-04-10T11:49:44.721Z,101715.50
2023-04-10T11:52:11.110Z,101723.34
2023-04-10T11:54:37.579Z,101716.16
2023-04-10T11:57:03.910Z,101723.34
2023-04-10T11:59:30.554Z,101708.97
2023-04-10T12:01:56.915Z,101704.63
2023-04-10T12:04:23.498Z,101695.59
2023-04-10T12:06:50.090Z,101696.44
2023-04-10T12:09:16.537Z,101688.59
2023-04-10T12:11:43.121Z,101688.59
2023-04-10T12:14:09.462Z,101682.25
2023-04-10T12:16:35.866Z,101679.56
2023-04-10T12:19:02.156Z,101675.91
2023-04-10T12:21:28.837Z,101677.75
2023-04-10T12:23:55.149Z,101676.91
2023-04-10T12:26:21.562Z,101667.91
2023-04-10T12:28:47.920Z,101669.56
2023-04-10T12:31:14.323Z,101664.22
2023-04-10T12:33:40.773Z,101658.88
2023-04-10T12:36:07.071Z,101656.00
2023-04-10T12:38:33.586Z,101649.00
2023-04-10T12:40:59.923Z,101642.84
2023-04-10T12:43:26.343Z,101644.50
2023-04-10T12:45:53.073Z,101639.16
2023-04-10T12:48:20.053Z,101640.78
2023-04-10T12:50:46.496Z,101630.09
2023-04-10T12:53:13.112Z,101633.81
2023-04-10T12:55:39.702Z,101630.09
2023-04-10T12:58:06.081Z,101623.94
2023-04-10T13:00:32.363Z,101627.44
2023-04-10T13:02:58.873Z,101631.75
2023-04-10T13:05:25.900Z,101621.28
2023-04-10T13:07:52.278Z,101619.59
2023-04-10T13:10:18.582Z,101607.94
2023-04-10T13:12:44.877Z,101597.25
2023-04-10T13:15:11.215Z,101600.72
2023-04-10T13:17:37.923Z,101587.34
2023-04-10T13:20:04.629Z,101595.38
2023-04-10T13:22:31.047Z,101586.56
2023-04-10T13:24:57.384Z,101582.84
2023-04-10T13:27:24.132Z,101579.16
2023-04-10T13:29:50.678Z,101572.16
2023-04-10T13:32:17.288Z,101562.28
2023-04-10T13:34:43.773Z,101562.28
2023-04-10T13:37:10.224Z,101557.78
2023-04-10T13:39:36.611Z,101547.94
2023-04-10T13:42:03.525Z,101539.28
2023-04-10T13:44:30.213Z,101530.22
2023-04-10T13:46:56.547Z,101532.91
2023-04-10T13:49:23.185Z,101533.13
2023-04-10T13:51:50.092Z,101531.25
2023-04-10T13:54:16.539Z,101530.22
2023-04-10T13:56:42.874Z,101519.53
2023-04-10T13:59:09.144Z,101517.91
2023-04-10T14:01:35.615Z,101498.16
2023-04-10T14:04:02.067Z,101507.22
2023-04-10T14:06:29.193Z,101500.22
2023-04-10T14:08:56.232Z,101493.84
2023-04-10T14:11:23.110Z,101491.19
2023-04-10T14:13:49.510Z,101482.13
2023-04-10T14:16:16.018Z,101474.13
2023-04-10T14:18:42.616Z,101465.13
2023-04-10T14:21:09.212Z,101466.94
2023-04-10T14:23:35.546Z,101460.75
2023-04-10T14:26:02.115Z,101448.25
2023-04-10T14:28:28.587Z,101460.75
2023-04-10T14:30:55.334Z,101452.56
2023-04-10T14:33:21.761Z,101441.25
2023-04-10T14:35:49.437Z,101439.41
2023-04-10T14:38:16.213Z,101440.41
2023-04-10T14:40:42.686Z,101429.53
2023-04-10T14:43:09.256Z,101424.38
2023-04-10T14:45:35.602Z,101422.56
2023-04-10T14:48:02.250Z,101419.22
2023-04-10T14:50:28.860Z,101415.56
2023-04-10T14:52:55.579Z,101411.50
2023-04-10T14:55:21.843Z,101412.19
2023-04-10T14:57:48.211Z,101408.22
2023-04-10T15:00:14.553Z,101403.72
2023-04-10T15:02:40.921Z,101398.38
2023-04-10T15:05:07.287Z,101394.66
2023-04-10T15:07:33.590Z,101397.72
2023-04-10T15:09:59.998Z,101393.03
2023-04-10T15:12:26.561Z,101379.00
2023-04-10T15:14:53.030Z,101379.19
2023-04-10T15:17:19.429Z,101379.19
2023-04-10T15:19:45.924Z,101366.66
2023-04-10T15:22:12.424Z,101365.19
2023-04-10T15:24:50.124Z,101364.84
2023-04-10T15:27:17.855Z,101365.00
2023-04-10T15:29:44.185Z,101361.31
2023-04-10T15:32:10.607Z,101358.00
2023-04-10T15:34:37.027Z,101357.81
2023-04-10T15:37:03.390Z,101347.97
2023-04-10T15:39:29.796Z,101353.31
2023-04-10T15:41:56.274Z,101342.25
2023-04-10T15:44:22.587Z,101338.72
2023-04-10T15:46:49.397Z,101329.06
2023-04-10T15:49:23.173Z,101320.03
2023-04-10T15:51:57.066Z,101319.19
2023-04-10T15:54:23.505Z,101321.66
2023-04-10T15:56:50.041Z,101320.84
2023-04-10T15:59:16.642Z,101312.84
2023-04-10T16:01:43.212Z,101309.16
2023-04-10T16:04:09.668Z,101307.50
2023-04-10T16:06:36.113Z,101305.63
2023-04-10T16:09:04.750Z,101298.25
2023-04-10T16:11:34.258Z,101296.63
2023-04-10T16:14:00.758Z,101296.41
2023-04-10T16:16:27.308Z,101296.41
2023-04-10T16:18:53.787Z,101288.38
2023-04-10T16:21:20.152Z,101285.72
2023-04-10T16:23:46.641Z,101286.56
2023-04-10T16:26:12.964Z,101284.91
2023-04-10T16:28:39.679Z,101281.38
2023-04-10T16:31:06.021Z,101283.88
2023-04-10T16:33:32.705Z,101271.53
2023-04-10T16:35:59.257Z,101272.34
2023-04-10T16:38:25.657Z,101264.31
2023-04-10T16:40:51.986Z,101253.44
2023-04-10T16:43:18.282Z,101255.50
2023-04-10T16:45:44.604Z,101261.66
2023-04-10T16:48:11.508Z,101258.97
2023-04-10T16:50:37.959Z,101251.81
2023-04-10T16:53:04.375Z,101251.81
2023-04-10T16:55:30.657Z,101249.13
2023-04-10T16:57:57.246Z,101243.59
2023-04-10T17:00:23.680Z,101242.94
2023-04-10T17:02:50.238Z,101242.75
2023-04-10T17:05:16.744Z,101241.94
2023-04-10T17:07:44.582Z,101235.56
2023-04-10T17:10:11.638Z,101230.41
2023-04-10T17:12:38.028Z,101230.41
2023-04-10T17:15:04.429Z,101231.25
2023-04-10T17:17:30.784Z,101226.72
2023-04-10T17:19:57.413Z,101231.03
2023-04-10T17:22:24.381Z,101223.25
2023-04-10T17:24:51.411Z,101225.06
2023-04-10T17:27:18.155Z,101223.25
2023-04-10T17:29:44.900Z,101227.56
2023-04-10T17:32:11.620Z,101218.50
2023-04-10T17:34:37.924Z,101222.84
2023-04-10T17:37:04.414Z,101216.50
2023-04-10T17:39:30.809Z,101212.13
2023-04-10T17:41:57.202Z,101209.28
2023-04-10T17:44:24.151Z,101203.94
2023-04-10T17:46:50.654Z,101203.75
2023-04-10T17:49:17.298Z,101210.75
2023-04-10T17:51:44.076Z,101201.06
2023-04-10T17:54:10.446Z,101200.22
2023-04-10T17:56:37.362Z,101202.91
2023-04-10T17:59:04.229Z,101199.25
2023-04-10T18:01:30.833Z,101188.53
2023-04-10T18:03:57.925Z,101193.06
2023-04-10T18:06:24.933Z,101196.56
2023-04-10T18:08:51.912Z,101193.06
2023-04-10T18:11:18.706Z,101185.03
2023-04-10T18:13:45.609Z,101185.88
2023-04-10T18:16:12.238Z,101175.19
2023-04-10T18:18:38.944Z,101174.34
2023-04-10T18:21:05.770Z,101173.31
2023-04-10T18:23:32.586Z,101171.47
2023-04-10T18:25:59.214Z,101170.63
2023-04-10T18:28:25.851Z,101162.63
2023-04-10T18:30:52.487Z,101168.81
2023-04-10T18:33:19.422Z,101158.91
2023-04-10T18:35:46.172Z,101161.41
2023-04-10T18:38:13.639Z,101153.56
2023-04-10T18:40:40.485Z,101159.75
2023-04-10T18:43:07.302Z,101152.78
2023-04-10T18:45:34.026Z,101136.72
2023-04-10T18:48:00.749Z,101146.59
2023-04-10T18:50:27.544Z,101142.06
2023-04-10T18:52:54.202Z,101133.22
2023-04-10T18:55:20.663Z,101143.09
2023-04-10T18:57:47.194Z,101137.53
2023-04-10T19:00:14.269Z,101136.72
2023-04-10T19:02:40.663Z,101138.56
2023-04-10T19:05:07.471Z,101130.53
2023-04-10T19:07:34.699Z,101125.19
2023-04-10T19:10:01.760Z,101130.53
2023-04-10T19:12:28.685Z,101124.41
2023-04-10T19:14:55.368Z,101125.19
2023-04-10T19:17:22.043Z,101113.47
2023-04-10T19:19:49.075Z,101117.00
2023-04-10T19:22:16.057Z,101112.66
2023-04-10T19:24:43.033Z,101116.16
2023-04-10T19:27:09.318Z,101111.84
2023-04-10T19:29:36.046Z,101114.50
2023-04-10T19:32:02.805Z,101113.69
2023-04-10T19:34:29.606Z,101103.81
2023-04-10T19:36:55.982Z,101107.53
2023-04-10T19:39:22.297Z,101103.00
2023-04-10T19:41:50.366Z,101098.47
2023-04-10T19:44:17.044Z,101094.16
2023-04-10T19:46:43.919Z,101096.81
2023-04-10T19:49:10.467Z,101091.91
2023-04-10T19:51:36.835Z,101090.25
2023-04-10T19:54:03.878Z,101083.28
2023-04-10T19:56:30.227Z,101082.03
2023-04-10T19:58:57.361Z,101080.22
2023-04-10T20:01:24.648Z,101075.66
2023-04-10T20:03:51.526Z,101063.16
2023-04-10T20:06:18.012Z,101063.94
2023-04-10T20:08:44.980Z,101061.28
2023-04-10T20:11:11.790Z,101057.59
2023-04-10T20:13:38.643Z,101055.53
2023-04-10T20:16:05.474Z,101046.72
2023-04-10T20:18:31.906Z,101050.38
2023-04-10T20:20:58.424Z,101043.81
2023-04-10T20:23:24.771Z,101045.88
2023-04-10T20:25:51.610Z,101041.38
2023-04-10T20:28:18.317Z,101032.50
2023-04-10T20:30:44.796Z,101032.31
2023-04-10T20:33:11.736Z,101030.69
2023-04-10T20:35:38.177Z,101032.31
2023-04-10T20:38:04.994Z,101028.63
2023-04-10T20:40:31.655Z,101028.63
2023-04-10T20:42:58.080Z,101021.44
2023-04-10T20:45:24.871Z,101027.78
2023-04-10T20:47:51.551Z,101015.44
2023-04-10T20:50:18.499Z,101010.94
2023-04-10T20:52:45.256Z,101008.47
2023-04-10T20:55:11.597Z,101006.63
2023-04-10T20:57:38.098Z,100998.59
2023-04-10T21:00:04.702Z,100992.41
2023-04-10T21:02:31.672Z,100988.50
2023-04-10T21:04:58.210Z,100976.19
2023-04-10T21:07:24.578Z,100971.44
2023-04-10T21:09:51.882Z,100968.97
2023-04-10T21:12:18.827Z,100978.03
2023-04-10T21:14:46.030Z,100968.34
2023-04-10T21:17:12.817Z,100973.50
2023-04-10T21:19:39.690Z,100970.00
2023-04-10T21:22:06.212Z,100962.63
2023-04-10T21:24:32.894Z,100965.50
2023-04-10T21:26:59.373Z,100957.47
2023-04-10T21:29:25.838Z,100957.47
2023-04-10T21:31:52.275Z,100957.66
2023-04-10T21:34:18.740Z,100965.69
2023-04-10T21:36:45.774Z,100968.97
2023-04-10T21:39:12.476Z,100948.41
2023-04-10T21:41:38.863Z,100950.25
2023-04-10T21:44:05.323Z,100952.13
2023-04-10T21:46:31.866Z,100947.59
2023-04-10T21:48:58.930Z,100949.44
2023-04-10T21:51:26.795Z,100947.59
2023-04-10T21:53:53.322Z,100947.59
2023-04-10T21:56:20.346Z,100952.31
2023-04-10T21:58:47.206Z,100944.91
2023-04-10T22:01:13.546Z,100946.59
2023-04-10T22:03:39.991Z,100946.59
2023-04-10T22:06:07.251Z,100937.72
2023-04-10T22:08:33.853Z,100938.75
2023-04-10T22:11:00.223Z,100935.25
2023-04-10T22:13:30.854Z,100939.56
2023-04-10T22:15:57.740Z,100930.75
2023-04-10T22:18:24.214Z,100928.66
2023-04-10T22:20:50.630Z,100917.16
2023-04-10T22:23:17.064Z,100914.69
2023-04-10T22:25:43.653Z,100914.50
2023-04-10T22:28:10.522Z,100911.19
2023-04-10T22:30:37.056Z,100911.00
2023-04-10T22:33:03.672Z,100911.81
2023-04-10T22:35:30.094Z,100905.66
2023-04-10T22:37:56.497Z,100899.47
2023-04-10T22:40:23.048Z,100900.28
2023-04-10T22:42:49.513Z,100894.94
2023-04-10T22:45:15.949Z,100893.31
2023-04-10T22:47:42.375Z,100895.16
2023-04-10T22:50:08.881Z,100887.97
2023-04-10T22:52:35.303Z,100874.41
2023-04-10T22:55:01.919Z,100870.06
2023-04-10T22:57:28.955Z,100861.22
2023-04-10T22:59:55.304Z,100857.72
2023-04-10T23:02:21.898Z,100856.69
2023-04-10T23:04:48.457Z,100838.22
2023-04-10T23:07:14.936Z,100831.81
2023-04-10T23:09:41.251Z,100825.66
2023-04-10T23:12:08.121Z,100821.53
2023-04-10T23:14:34.467Z,100822.78
2023-04-10T23:17:00.969Z,100819.06
2023-04-10T23:19:27.318Z,100816.59
2023-04-10T23:21:53.839Z,100813.91
2023-04-10T23:24:20.184Z,100809.59
2023-04-10T23:26:46.793Z,100805.28
2023-04-10T23:29:13.299Z,100802.41
2023-04-10T23:31:39.661Z,100799.94
2023-04-10T23:34:06.208Z,100799.13
2023-04-10T23:36:32.601Z,100785.56
2023-04-10T23:38:59.528Z,100784.75
2023-04-10T23:41:25.903Z,100775.91
2023-04-10T23:43:52.245Z,100779.41
2023-04-10T23:46:18.562Z,100764.16
2023-04-10T23:48:45.106Z,100763.56
2023-04-10T23:51:11.589Z,100761.50
2023-04-10T23:53:37.946Z,100765.00
2023-04-10T23:56:04.294Z,100755.53
2023-04-10T23:58:30.680Z,100749.75
